Aeroporto :
LOGIN :

Iscrizione | Disclaimer

   EN    FR    IT 

 










Sommario :    VFR   VFR Marginale   IFR   IFR Intensivo   IFR Molto Intensivo
Visibilità : 
Base nubi : 
>= 8 km
>= 3000ft
5 / 8 km
1000 / 3000 ft
1500m / 5 km
500 / 1000 ft
800 / 1500m
200 / 500 ft
< 800m
< 200 ft
Simboli :   Temporali  Nebbia  Neve Forte  Precipitazioni Forti  Vento > 20 kt
SIGMETs :   Varie  Temporali  Ghiacco  Turbolenza  Onda orograficha  Ceneri Vulcaniche






- Altitudine del aeroporto : 126 ft
- Codice IATA : WIC


EGPC - Wick

ULTIMO METAR :
  • 202350Z AUTO 25015KT 9999 NCD 04/00 Q0996

METARs OBSOLETI :
  • 202320Z AUTO 25016KT 9999 NCD 04/M00 Q0996
  • 202250Z AUTO 25008KT 9999 NCD 02/M00 Q0996
  • 202220Z AUTO 27018KT 9999 FEW013/// 03/00 Q0996
  • 202150Z AUTO 27024G34KT 3100 -RA FEW003/// SCT008/// BKN024/// 02/00 Q0995 RERA
  • 202120Z AUTO 27019KT 9999 SCT020/// 03/M01 Q0994

TAF TAF EGPC
Valido dal 21 a 00 ore il 21 a 09 ore UTC


202301Z 2100/2109 26012KT 9999 FEW020
BECMG 2100/2103 21018G28KT
TEMPO 2102/2109 22028G38KT 6000 RA BKN012
PROB30
TEMPO 2104/2109 23032G48KT
ATIS : +44 1955 607 596



MetMap, La meteo Aeronautica in un colpo d'occhio ! - Copyright ORBIFLY Dicembre 2007 - Disclaimer

ORBIFLY MET'MAP TEAM :

Programmazione e sviluppo : Alexandra Zaïnal
Concezione : Baudouin d'Aumeries
Aiuto per la programmazione : Marc-Olivier Méhu
Supporto tecnico e logistico : Manuel Goepfert
Aiuto per la traduzione : Arnaldo La Scala

Contatto : metmap@orbifly.com




FONTI E CREDITI :

   NOAA